sensor_id;sensor_type;location;lat;lon;timestamp;pressure;altitude;pressure_sealevel;temperature;humidity
3444;BME280;1736;52.068;6.968;2024-03-17T00:00:21;101892.13;;;4.50;100.00
3444;BME280;1736;52.068;6.968;2024-03-17T00:02:47;101895.53;;;4.52;100.00
3444;BME280;1736;52.068;6.968;2024-03-17T00:05:15;101895.66;;;4.49;100.00
3444;BME280;1736;52.068;6.968;2024-03-17T00:07:43;101904.47;;;4.48;100.00
3444;BME280;1736;52.068;6.968;2024-03-17T00:10:10;101903.53;;;4.49;100.00
3444;BME280;1736;52.068;6.968;2024-03-17T00:12:36;101902.66;;;4.50;100.00
3444;BME280;1736;52.068;6.968;2024-03-17T00:15:03;101905.13;;;4.53;100.00
3444;BME280;1736;52.068;6.968;2024-03-17T00:17:29;101896.41;;;4.52;100.00
3444;BME280;1736;52.068;6.968;2024-03-17T00:19:56;101891.16;;;4.52;100.00
3444;BME280;1736;52.068;6.968;2024-03-17T00:22:24;101879.88;;;4.49;100.00
3444;BME280;1736;52.068;6.968;2024-03-17T00:24:49;101890.28;;;4.52;100.00
3444;BME280;1736;52.068;6.968;2024-03-17T00:27:16;101885.09;;;4.50;100.00
3444;BME280;1736;52.068;6.968;2024-03-17T00:29:41;101894.78;;;4.50;100.00
3444;BME280;1736;52.068;6.968;2024-03-17T00:32:08;101872.94;;;4.48;100.00
3444;BME280;1736;52.068;6.968;2024-03-17T00:34:35;101882.66;;;4.46;100.00
3444;BME280;1736;52.068;6.968;2024-03-17T00:37:02;101889.50;;;4.50;100.00
3444;BME280;1736;52.068;6.968;2024-03-17T00:39:29;101880.94;;;4.45;100.00
3444;BME280;1736;52.068;6.968;2024-03-17T00:41:57;101871.34;;;4.44;100.00
3444;BME280;1736;52.068;6.968;2024-03-17T00:44:23;101873.19;;;4.42;100.00
3444;BME280;1736;52.068;6.968;2024-03-17T00:46:49;101873.03;;;4.45;100.00
3444;BME280;1736;52.068;6.968;2024-03-17T00:49:15;101866.19;;;4.41;100.00
3444;BME280;1736;52.068;6.968;2024-03-17T00:51:42;101870.72;;;4.37;100.00
3444;BME280;1736;52.068;6.968;2024-03-17T00:54:08;101866.56;;;4.32;100.00
3444;BME280;1736;52.068;6.968;2024-03-17T00:56:36;101860.53;;;4.30;100.00
3444;BME280;1736;52.068;6.968;2024-03-17T00:59:02;101834.38;;;4.27;100.00
3444;BME280;1736;52.068;6.968;2024-03-17T01:01:28;101838.81;;;4.25;100.00
3444;BME280;1736;52.068;6.968;2024-03-17T01:03:54;101846.69;;;4.25;100.00
3444;BME280;1736;52.068;6.968;2024-03-17T01:06:21;101840.66;;;4.23;100.00
3444;BME280;1736;52.068;6.968;2024-03-17T01:08:46;101846.03;;;4.20;100.00
3444;BME280;1736;52.068;6.968;2024-03-17T01:11:14;101852.88;;;4.24;100.00
3444;BME280;1736;52.068;6.968;2024-03-17T01:13:43;101841.69;;;4.19;100.00
3444;BME280;1736;52.068;6.968;2024-03-17T01:16:09;101852.31;;;4.16;100.00
3444;BME280;1736;52.068;6.968;2024-03-17T01:18:35;101847.88;;;4.18;100.00
3444;BME280;1736;52.068;6.968;2024-03-17T01:21:02;101832.84;;;4.21;100.00
3444;BME280;1736;52.068;6.968;2024-03-17T01:23:28;101830.31;;;4.18;100.00
3444;BME280;1736;52.068;6.968;2024-03-17T01:25:55;101838.34;;;4.15;100.00
3444;BME280;1736;52.068;6.968;2024-03-17T01:28:20;101832.34;;;4.12;100.00
3444;BME280;1736;52.068;6.968;2024-03-17T01:30:48;101836.75;;;4.11;100.00
3444;BME280;1736;52.068;6.968;2024-03-17T01:33:14;101822.81;;;4.09;100.00
3444;BME280;1736;52.068;6.968;2024-03-17T01:35:41;101820.78;;;4.16;100.00
3444;BME280;1736;52.068;6.968;2024-03-17T01:38:06;101829.59;;;4.15;100.00
3444;BME280;1736;52.068;6.968;2024-03-17T01:40:33;101829.66;;;4.13;100.00
3444;BME280;1736;52.068;6.968;2024-03-17T01:42:58;101829.97;;;4.06;100.00
3444;BME280;1736;52.068;6.968;2024-03-17T01:45:27;101842.13;;;4.08;100.00
3444;BME280;1736;52.068;6.968;2024-03-17T01:47:56;101841.50;;;4.02;100.00
3444;BME280;1736;52.068;6.968;2024-03-17T01:50:24;101838.56;;;4.09;100.00
3444;BME280;1736;52.068;6.968;2024-03-17T01:52:51;101831.56;;;4.10;100.00
3444;BME280;1736;52.068;6.968;2024-03-17T01:55:20;101841.50;;;4.02;100.00
3444;BME280;1736;52.068;6.968;2024-03-17T01:57:45;101840.19;;;3.90;100.00
3444;BME280;1736;52.068;6.968;2024-03-17T02:00:12;101843.56;;;3.94;100.00
3444;BME280;1736;52.068;6.968;2024-03-17T02:02:39;101831.69;;;3.84;100.00
3444;BME280;1736;52.068;6.968;2024-03-17T02:05:08;101839.91;;;3.75;100.00
3444;BME280;1736;52.068;6.968;2024-03-17T02:07:33;101814.78;;;3.68;100.00
3444;BME280;1736;52.068;6.968;2024-03-17T02:10:00;101815.81;;;3.64;100.00
3444;BME280;1736;52.068;6.968;2024-03-17T02:12:28;101842.94;;;3.64;100.00
3444;BME280;1736;52.068;6.968;2024-03-17T02:14:56;101843.09;;;3.60;100.00
3444;BME280;1736;52.068;6.968;2024-03-17T02:17:21;101824.97;;;3.54;100.00
3444;BME280;1736;52.068;6.968;2024-03-17T02:19:48;101829.44;;;3.52;100.00
3444;BME280;1736;52.068;6.968;2024-03-17T02:22:15;101832.72;;;3.57;100.00
3444;BME280;1736;52.068;6.968;2024-03-17T02:24:43;101831.13;;;3.53;100.00
3444;BME280;1736;52.068;6.968;2024-03-17T02:27:08;101837.09;;;3.56;100.00
3444;BME280;1736;52.068;6.968;2024-03-17T02:29:35;101839.78;;;3.55;100.00
3444;BME280;1736;52.068;6.968;2024-03-17T02:32:02;101837.31;;;3.52;100.00
3444;BME280;1736;52.068;6.968;2024-03-17T02:34:32;101834.78;;;3.49;100.00
3444;BME280;1736;52.068;6.968;2024-03-17T02:36:58;101824.38;;;3.46;100.00
3444;BME280;1736;52.068;6.968;2024-03-17T02:39:26;101825.25;;;3.46;100.00
3444;BME280;1736;52.068;6.968;2024-03-17T02:41:59;101824.38;;;3.46;100.00
3444;BME280;1736;52.068;6.968;2024-03-17T02:44:26;101812.09;;;3.48;100.00
3444;BME280;1736;52.068;6.968;2024-03-17T02:46:53;101794.59;;;3.47;100.00
3444;BME280;1736;52.068;6.968;2024-03-17T02:49:18;101792.78;;;3.49;100.00
3444;BME280;1736;52.068;6.968;2024-03-17T02:51:45;101805.66;;;3.55;100.00
3444;BME280;1736;52.068;6.968;2024-03-17T02:54:11;101806.44;;;3.58;100.00
3444;BME280;1736;52.068;6.968;2024-03-17T02:56:39;101819.66;;;3.55;100.00
3444;BME280;1736;52.068;6.968;2024-03-17T02:59:07;101806.34;;;3.60;100.00
3444;BME280;1736;52.068;6.968;2024-03-17T03:01:34;101799.19;;;3.65;100.00
3444;BME280;1736;52.068;6.968;2024-03-17T03:04:00;101800.88;;;3.66;100.00
3444;BME280;1736;52.068;6.968;2024-03-17T03:06:27;101798.09;;;3.70;100.00
3444;BME280;1736;52.068;6.968;2024-03-17T03:08:53;101797.19;;;3.71;100.00
3444;BME280;1736;52.068;6.968;2024-03-17T03:11:20;101798.16;;;3.69;100.00
3444;BME280;1736;52.068;6.968;2024-03-17T03:13:48;101803.34;;;3.70;100.00
3444;BME280;1736;52.068;6.968;2024-03-17T03:16:15;101798.22;;;3.67;100.00
3444;BME280;1736;52.068;6.968;2024-03-17T03:18:41;101795.63;;;3.66;100.00
3444;BME280;1736;52.068;6.968;2024-03-17T03:21:10;101800.94;;;3.64;100.00
3444;BME280;1736;52.068;6.968;2024-03-17T03:23:37;101805.16;;;3.68;100.00
3444;BME280;1736;52.068;6.968;2024-03-17T03:26:04;101807.06;;;3.65;100.00
3444;BME280;1736;52.068;6.968;2024-03-17T03:28:31;101818.53;;;3.62;100.00
3444;BME280;1736;52.068;6.968;2024-03-17T03:31:00;101790.50;;;3.63;100.00
3444;BME280;1736;52.068;6.968;2024-03-17T03:33:27;101801.03;;;3.61;100.00
3444;BME280;1736;52.068;6.968;2024-03-17T03:35:54;101790.75;;;3.57;100.00
3444;BME280;1736;52.068;6.968;2024-03-17T03:38:21;101802.13;;;3.56;100.00
3444;BME280;1736;52.068;6.968;2024-03-17T03:40:48;101800.06;;;3.64;100.00
3444;BME280;1736;52.068;6.968;2024-03-17T03:43:15;101802.13;;;3.56;100.00
3444;BME280;1736;52.068;6.968;2024-03-17T03:45:41;101804.84;;;3.54;100.00
3444;BME280;1736;52.068;6.968;2024-03-17T03:48:09;101806.34;;;3.60;100.00
3444;BME280;1736;52.068;6.968;2024-03-17T03:50:37;101825.88;;;3.53;100.00
3444;BME280;1736;52.068;6.968;2024-03-17T03:53:04;101820.50;;;3.56;100.00
3444;BME280;1736;52.068;6.968;2024-03-17T03:55:32;101828.25;;;3.59;100.00
3444;BME280;1736;52.068;6.968;2024-03-17T03:57:58;101825.13;;;3.49;100.00
3444;BME280;1736;52.068;6.968;2024-03-17T04:00:25;101823.47;;;3.47;100.00
3444;BME280;1736;52.068;6.968;2024-03-17T04:02:55;101826.28;;;3.42;100.00
3444;BME280;1736;52.068;6.968;2024-03-17T04:05:23;101822.88;;;3.39;100.00
3444;BME280;1736;52.068;6.968;2024-03-17T04:07:50;101823.69;;;3.41;100.00
3444;BME280;1736;52.068;6.968;2024-03-17T04:10:16;101815.94;;;3.38;100.00
3444;BME280;1736;52.068;6.968;2024-03-17T04:12:44;101819.25;;;3.43;100.00
3444;BME280;1736;52.068;6.968;2024-03-17T04:15:10;101820.22;;;3.40;100.00
3444;BME280;1736;52.068;6.968;2024-03-17T04:17:37;101807.84;;;3.44;100.00
3444;BME280;1736;52.068;6.968;2024-03-17T04:20:04;101814.47;;;3.54;100.00
3444;BME280;1736;52.068;6.968;2024-03-17T04:22:34;101808.44;;;3.52;100.00
3444;BME280;1736;52.068;6.968;2024-03-17T04:25:02;101798.00;;;3.50;100.00
3444;BME280;1736;52.068;6.968;2024-03-17T04:27:29;101805.63;;;3.56;100.00
3444;BME280;1736;52.068;6.968;2024-03-17T04:29:58;101796.63;;;3.63;100.00
3444;BME280;1736;52.068;6.968;2024-03-17T04:32:25;101799.97;;;3.67;100.00
3444;BME280;1736;52.068;6.968;2024-03-17T04:34:52;101783.28;;;3.68;100.00
3444;BME280;1736;52.068;6.968;2024-03-17T04:37:19;101788.28;;;3.75;100.00
3444;BME280;1736;52.068;6.968;2024-03-17T04:39:49;101780.19;;;3.80;100.00
3444;BME280;1736;52.068;6.968;2024-03-17T04:42:17;101799.19;;;3.86;100.00
3444;BME280;1736;52.068;6.968;2024-03-17T04:44:45;101792.03;;;3.91;100.00
3444;BME280;1736;52.068;6.968;2024-03-17T04:47:12;101787.31;;;3.99;100.00
3444;BME280;1736;52.068;6.968;2024-03-17T04:49:39;101778.47;;;4.02;100.00
3444;BME280;1736;52.068;6.968;2024-03-17T04:52:07;101782.63;;;4.07;100.00
3444;BME280;1736;52.068;6.968;2024-03-17T04:54:34;101783.09;;;4.17;100.00
3444;BME280;1736;52.068;6.968;2024-03-17T04:57:02;101781.28;;;4.19;100.00
3444;BME280;1736;52.068;6.968;2024-03-17T04:59:29;101770.75;;;4.19;100.00
3444;BME280;1736;52.068;6.968;2024-03-17T05:01:56;101761.84;;;4.23;100.00
3444;BME280;1736;52.068;6.968;2024-03-17T05:04:22;101760.13;;;4.22;100.00
3444;BME280;1736;52.068;6.968;2024-03-17T05:06:49;101760.00;;;4.25;100.00
3444;BME280;1736;52.068;6.968;2024-03-17T05:09:16;101743.13;;;4.30;100.00
3444;BME280;1736;52.068;6.968;2024-03-17T05:11:42;101757.25;;;4.28;100.00
3444;BME280;1736;52.068;6.968;2024-03-17T05:14:11;101757.06;;;4.32;100.00
3444;BME280;1736;52.068;6.968;2024-03-17T05:16:37;101747.66;;;4.27;100.00
3444;BME280;1736;52.068;6.968;2024-03-17T05:19:04;101747.38;;;4.33;100.00
3444;BME280;1736;52.068;6.968;2024-03-17T05:21:31;101751.53;;;4.38;100.00
3444;BME280;1736;52.068;6.968;2024-03-17T05:23:58;101745.19;;;4.44;100.00
3444;BME280;1736;52.068;6.968;2024-03-17T05:26:27;101751.31;;;4.44;100.00
3444;BME280;1736;52.068;6.968;2024-03-17T05:28:55;101750.44;;;4.44;100.00
3444;BME280;1736;52.068;6.968;2024-03-17T05:31:23;101746.88;;;4.45;100.00
3444;BME280;1736;52.068;6.968;2024-03-17T05:33:49;101746.81;;;4.46;100.00
3444;BME280;1736;52.068;6.968;2024-03-17T05:36:17;101741.63;;;4.45;100.00
3444;BME280;1736;52.068;6.968;2024-03-17T05:38:45;101744.78;;;4.53;100.00
3444;BME280;1736;52.068;6.968;2024-03-17T05:41:12;101749.22;;;4.52;100.00
3444;BME280;1736;52.068;6.968;2024-03-17T05:43:38;101738.63;;;4.54;100.00
3444;BME280;1736;52.068;6.968;2024-03-17T05:46:06;101729.03;;;4.53;100.00
3444;BME280;1736;52.068;6.968;2024-03-17T05:48:34;101733.28;;;4.55;100.00
3444;BME280;1736;52.068;6.968;2024-03-17T05:51:03;101733.91;;;4.62;100.00
3444;BME280;1736;52.068;6.968;2024-03-17T05:53:30;101742.16;;;4.73;100.00
3444;BME280;1736;52.068;6.968;2024-03-17T05:55:58;101739.34;;;4.77;100.00
3444;BME280;1736;52.068;6.968;2024-03-17T05:58:25;101737.84;;;4.92;100.00
3444;BME280;1736;52.068;6.968;2024-03-17T06:00:52;101738.09;;;4.86;100.00
3444;BME280;1736;52.068;6.968;2024-03-17T06:03:19;101740.59;;;4.89;100.00
3444;BME280;1736;52.068;6.968;2024-03-17T06:05:48;101740.53;;;4.90;100.00
3444;BME280;1736;52.068;6.968;2024-03-17T06:08:15;101737.53;;;4.98;100.00
3444;BME280;1736;52.068;6.968;2024-03-17T06:10:43;101744.06;;;5.09;100.00
3444;BME280;1736;52.068;6.968;2024-03-17T06:13:10;101732.56;;;5.12;100.00
3444;BME280;1736;52.068;6.968;2024-03-17T06:15:38;101738.69;;;5.12;100.00
3444;BME280;1736;52.068;6.968;2024-03-17T06:18:05;101722.41;;;5.23;100.00
3444;BME280;1736;52.068;6.968;2024-03-17T06:20:34;101731.94;;;5.25;100.00
3444;BME280;1736;52.068;6.968;2024-03-17T06:23:02;101728.25;;;5.29;100.00
3444;BME280;1736;52.068;6.968;2024-03-17T06:25:29;101728.50;;;5.23;100.00
3444;BME280;1736;52.068;6.968;2024-03-17T06:27:55;101732.25;;;5.18;100.00
3444;BME280;1736;52.068;6.968;2024-03-17T06:30:22;101730.44;;;5.20;100.00
3444;BME280;1736;52.068;6.968;2024-03-17T06:32:49;101726.16;;;5.17;100.00
3444;BME280;1736;52.068;6.968;2024-03-17T06:35:15;101745.00;;;5.08;100.00
3444;BME280;1736;52.068;6.968;2024-03-17T06:37:43;101731.25;;;5.20;100.00
3444;BME280;1736;52.068;6.968;2024-03-17T06:40:13;101726.59;;;5.27;100.00
3444;BME280;1736;52.068;6.968;2024-03-17T06:42:40;101722.13;;;5.29;100.00
3444;BME280;1736;52.068;6.968;2024-03-17T06:45:07;101727.38;;;5.29;100.00
3444;BME280;1736;52.068;6.968;2024-03-17T06:47:34;101729.44;;;5.22;100.00
3444;BME280;1736;52.068;6.968;2024-03-17T06:50:01;101725.94;;;5.22;100.00
3444;BME280;1736;52.068;6.968;2024-03-17T06:52:28;101715.56;;;5.19;100.00
3444;BME280;1736;52.068;6.968;2024-03-17T06:54:57;101721.59;;;5.21;100.00
3444;BME280;1736;52.068;6.968;2024-03-17T06:57:25;101716.75;;;5.12;100.00
3444;BME280;1736;52.068;6.968;2024-03-17T06:59:52;101718.78;;;5.25;100.00
3444;BME280;1736;52.068;6.968;2024-03-17T07:02:19;101723.13;;;5.45;100.00
3444;BME280;1736;52.068;6.968;2024-03-17T07:04:46;101735.09;;;5.52;99.95
3444;BME280;1736;52.068;6.968;2024-03-17T07:07:16;101740.91;;;5.77;99.52
3444;BME280;1736;52.068;6.968;2024-03-17T07:09:43;101740.50;;;5.86;99.45
3444;BME280;1736;52.068;6.968;2024-03-17T07:12:10;101741.59;;;5.99;99.14
3444;BME280;1736;52.068;6.968;2024-03-17T07:14:38;101734.81;;;6.12;98.47
3444;BME280;1736;52.068;6.968;2024-03-17T07:17:05;101737.72;;;6.25;97.55
3444;BME280;1736;52.068;6.968;2024-03-17T07:19:32;101736.78;;;6.43;97.35
3444;BME280;1736;52.068;6.968;2024-03-17T07:21:59;101740.75;;;6.51;97.14
3444;BME280;1736;52.068;6.968;2024-03-17T07:24:26;101733.56;;;6.72;96.21
3444;BME280;1736;52.068;6.968;2024-03-17T07:26:53;101740.72;;;6.85;95.14
3444;BME280;1736;52.068;6.968;2024-03-17T07:29:19;101740.03;;;6.99;94.08
3444;BME280;1736;52.068;6.968;2024-03-17T07:31:47;101728.75;;;7.12;93.99
3444;BME280;1736;52.068;6.968;2024-03-17T07:34:14;101740.19;;;7.28;92.33
3444;BME280;1736;52.068;6.968;2024-03-17T07:36:41;101740.13;;;7.45;92.19
3444;BME280;1736;52.068;6.968;2024-03-17T07:39:07;101737.53;;;7.61;89.91
3444;BME280;1736;52.068;6.968;2024-03-17T07:41:34;101720.47;;;7.66;89.60
3444;BME280;1736;52.068;6.968;2024-03-17T07:44:00;101736.44;;;7.80;88.15
3444;BME280;1736;52.068;6.968;2024-03-17T07:46:26;101733.09;;;7.92;87.52
3444;BME280;1736;52.068;6.968;2024-03-17T07:48:54;101755.09;;;8.08;87.06
3444;BME280;1736;52.068;6.968;2024-03-17T07:51:21;101743.56;;;8.25;86.74
3444;BME280;1736;52.068;6.968;2024-03-17T07:53:48;101738.69;;;8.17;85.98
3444;BME280;1736;52.068;6.968;2024-03-17T07:56:15;101735.28;;;8.15;85.74
3444;BME280;1736;52.068;6.968;2024-03-17T07:58:43;101724.81;;;8.29;85.87
3444;BME280;1736;52.068;6.968;2024-03-17T08:01:11;101732.56;;;8.32;85.33
3444;BME280;1736;52.068;6.968;2024-03-17T08:03:39;101742.06;;;8.50;85.25
3444;BME280;1736;52.068;6.968;2024-03-17T08:06:08;101732.66;;;8.60;84.53
3444;BME280;1736;52.068;6.968;2024-03-17T08:08:36;101738.88;;;8.59;83.40
3444;BME280;1736;52.068;6.968;2024-03-17T08:11:04;101740.47;;;8.77;83.08
3444;BME280;1736;52.068;6.968;2024-03-17T08:13:31;101742.16;;;8.92;82.43
3444;BME280;1736;52.068;6.968;2024-03-17T08:16:01;101824.47;;;9.03;82.01
3444;BME280;1736;52.068;6.968;2024-03-17T08:18:28;101919.09;;;9.29;80.51
3444;BME280;1736;52.068;6.968;2024-03-17T08:20:54;101835.41;;;9.55;80.09
3444;BME280;1736;52.068;6.968;2024-03-17T08:23:23;101818.00;;;9.65;79.60
3444;BME280;1736;52.068;6.968;2024-03-17T08:25:53;101801.97;;;9.94;78.58
3444;BME280;1736;52.068;6.968;2024-03-17T08:28:20;101803.31;;;10.15;77.36
3444;BME280;1736;52.068;6.968;2024-03-17T08:30:54;101781.75;;;10.20;77.27
3444;BME280;1736;52.068;6.968;2024-03-17T08:33:21;101761.50;;;10.45;76.37
3444;BME280;1736;52.068;6.968;2024-03-17T08:35:55;101766.47;;;10.77;75.09
3444;BME280;1736;52.068;6.968;2024-03-17T08:38:24;101755.66;;;11.05;74.87
3444;BME280;1736;52.068;6.968;2024-03-17T08:40:51;101901.06;;;11.28;73.04
3444;BME280;1736;52.068;6.968;2024-03-17T08:43:19;101926.91;;;11.26;72.30
3444;BME280;1736;52.068;6.968;2024-03-17T08:45:54;101817.22;;;11.36;72.05
3444;BME280;1736;52.068;6.968;2024-03-17T08:48:21;101781.47;;;11.28;71.66
3444;BME280;1736;52.068;6.968;2024-03-17T08:50:50;101897.13;;;11.21;71.16
3444;BME280;1736;52.068;6.968;2024-03-17T08:53:17;101859.50;;;11.27;70.10
3444;BME280;1736;52.068;6.968;2024-03-17T08:55:45;101768.84;;;11.31;69.76
3444;BME280;1736;52.068;6.968;2024-03-17T08:58:11;101773.72;;;11.37;69.31
3444;BME280;1736;52.068;6.968;2024-03-17T09:00:38;101755.56;;;11.31;69.14
3444;BME280;1736;52.068;6.968;2024-03-17T09:03:06;101742.28;;;11.19;68.74
3444;BME280;1736;52.068;6.968;2024-03-17T09:05:35;101735.47;;;11.15;69.05
3444;BME280;1736;52.068;6.968;2024-03-17T09:08:01;101721.88;;;11.07;69.22
3444;BME280;1736;52.068;6.968;2024-03-17T09:10:28;101733.13;;;11.10;69.47
3444;BME280;1736;52.068;6.968;2024-03-17T09:12:56;101728.53;;;11.37;69.44
3444;BME280;1736;52.068;6.968;2024-03-17T09:15:23;101725.25;;;11.34;68.33
3444;BME280;1736;52.068;6.968;2024-03-17T09:17:49;101727.56;;;11.51;68.20
3444;BME280;1736;52.068;6.968;2024-03-17T09:20:16;101717.56;;;11.54;67.58
3444;BME280;1736;52.068;6.968;2024-03-17T09:22:43;101714.91;;;11.67;67.45
3444;BME280;1736;52.068;6.968;2024-03-17T09:25:10;101705.75;;;11.71;67.48
3444;BME280;1736;52.068;6.968;2024-03-17T09:27:37;101710.56;;;11.66;67.66
3444;BME280;1736;52.068;6.968;2024-03-17T09:30:06;101714.13;;;11.77;67.40
3444;BME280;1736;52.068;6.968;2024-03-17T09:32:34;101719.25;;;11.55;67.06
3444;BME280;1736;52.068;6.968;2024-03-17T09:35:01;101859.78;;;11.61;66.83
3444;BME280;1736;52.068;6.968;2024-03-17T09:37:28;101928.25;;;11.58;66.78
3444;BME280;1736;52.068;6.968;2024-03-17T09:39:56;101853.91;;;11.69;67.14
3444;BME280;1736;52.068;6.968;2024-03-17T09:42:23;101822.44;;;11.63;67.17
3444;BME280;1736;52.068;6.968;2024-03-17T09:44:51;101772.31;;;11.57;67.85
3444;BME280;1736;52.068;6.968;2024-03-17T09:47:21;101738.09;;;11.40;67.66
3444;BME280;1736;52.068;6.968;2024-03-17T09:49:48;101743.94;;;11.45;68.05
3444;BME280;1736;52.068;6.968;2024-03-17T09:52:19;101728.00;;;11.45;67.72
3444;BME280;1736;52.068;6.968;2024-03-17T09:54:50;101722.16;;;11.40;68.38
3444;BME280;1736;52.068;6.968;2024-03-17T09:57:21;101713.34;;;11.39;68.32
3444;BME280;1736;52.068;6.968;2024-03-17T09:59:51;101706.22;;;11.40;68.46
3444;BME280;1736;52.068;6.968;2024-03-17T10:02:18;101705.69;;;11.47;69.02
3444;BME280;1736;52.068;6.968;2024-03-17T10:04:46;101701.00;;;11.51;68.00
3444;BME280;1736;52.068;6.968;2024-03-17T10:07:13;101704.16;;;11.56;67.32
3444;BME280;1736;52.068;6.968;2024-03-17T10:09:41;101702.16;;;11.47;67.48
3444;BME280;1736;52.068;6.968;2024-03-17T10:12:25;101694.31;;;11.45;67.48
3444;BME280;1736;52.068;6.968;2024-03-17T10:14:58;101686.00;;;11.62;68.12
3444;BME280;1736;52.068;6.968;2024-03-17T10:17:32;101705.03;;;11.56;66.67
3444;BME280;1736;52.068;6.968;2024-03-17T10:20:17;101687.50;;;11.54;66.51
3444;BME280;1736;52.068;6.968;2024-03-17T10:22:58;101687.56;;;11.65;66.53
3444;BME280;1736;52.068;6.968;2024-03-17T10:25:25;101691.28;;;11.75;65.94
3444;BME280;1736;52.068;6.968;2024-03-17T10:27:52;101688.16;;;11.81;66.49
3444;BME280;1736;52.068;6.968;2024-03-17T10:30:20;101680.88;;;11.95;65.95
3444;BME280;1736;52.068;6.968;2024-03-17T10:32:52;101683.59;;;12.06;65.22
3444;BME280;1736;52.068;6.968;2024-03-17T10:35:29;101679.84;;;12.09;64.48
3444;BME280;1736;52.068;6.968;2024-03-17T10:37:57;101704.28;;;12.03;63.68
3444;BME280;1736;52.068;6.968;2024-03-17T10:40:25;101705.38;;;12.11;62.79
3444;BME280;1736;52.068;6.968;2024-03-17T10:42:52;101706.47;;;12.09;62.33
3444;BME280;1736;52.068;6.968;2024-03-17T10:45:19;101704.16;;;12.28;61.92
3444;BME280;1736;52.068;6.968;2024-03-17T10:47:47;101705.41;;;12.35;61.11
3444;BME280;1736;52.068;6.968;2024-03-17T10:50:17;101706.16;;;12.48;61.06
3444;BME280;1736;52.068;6.968;2024-03-17T10:52:47;101714.97;;;12.72;61.32
3444;BME280;1736;52.068;6.968;2024-03-17T10:55:21;101717.25;;;12.76;61.30
3444;BME280;1736;52.068;6.968;2024-03-17T10:57:49;101699.50;;;12.88;61.03
3444;BME280;1736;52.068;6.968;2024-03-17T11:00:18;101695.16;;;12.98;61.59
3444;BME280;1736;52.068;6.968;2024-03-17T11:02:47;101897.75;;;12.96;60.47
3444;BME280;1736;52.068;6.968;2024-03-17T11:05:16;101859.44;;;13.10;60.31
3444;BME280;1736;52.068;6.968;2024-03-17T11:07:45;101868.84;;;13.03;60.78
3444;BME280;1736;52.068;6.968;2024-03-17T11:10:18;101890.00;;;13.17;60.45
3444;BME280;1736;52.068;6.968;2024-03-17T11:12:46;101818.56;;;13.33;60.22
3444;BME280;1736;52.068;6.968;2024-03-17T11:15:36;101866.59;;;13.55;59.87
3444;BME280;1736;52.068;6.968;2024-03-17T11:18:36;102061.75;;;13.49;60.20
3444;BME280;1736;52.068;6.968;2024-03-17T11:21:18;102521.03;;;13.54;60.99
3444;BME280;1736;52.068;6.968;2024-03-17T11:23:55;102163.72;;;13.52;60.47
3444;BME280;1736;52.068;6.968;2024-03-17T11:26:27;102184.19;;;13.52;61.04
3444;BME280;1736;52.068;6.968;2024-03-17T11:28:53;102343.50;;;13.50;61.01
3444;BME280;1736;52.068;6.968;2024-03-17T11:31:34;102407.28;;;13.40;61.72
3444;BME280;1736;52.068;6.968;2024-03-17T11:34:01;102046.78;;;13.35;62.61
3444;BME280;1736;52.068;6.968;2024-03-17T11:36:36;102005.38;;;13.42;62.45
3444;BME280;1736;52.068;6.968;2024-03-17T11:39:04;101961.91;;;13.29;62.34
3444;BME280;1736;52.068;6.968;2024-03-17T11:41:40;102040.78;;;13.32;62.46
3444;BME280;1736;52.068;6.968;2024-03-17T11:44:14;102051.22;;;13.11;63.64
3444;BME280;1736;52.068;6.968;2024-03-17T11:46:41;101944.63;;;13.11;64.07
3444;BME280;1736;52.068;6.968;2024-03-17T11:49:16;101956.47;;;13.07;64.44
3444;BME280;1736;52.068;6.968;2024-03-17T11:51:44;101904.56;;;13.24;64.24
3444;BME280;1736;52.068;6.968;2024-03-17T11:54:14;101850.47;;;13.11;64.02
3444;BME280;1736;52.068;6.968;2024-03-17T11:56:48;101798.06;;;12.88;63.95
3444;BME280;1736;52.068;6.968;2024-03-17T11:59:14;101782.53;;;12.82;64.14
3444;BME280;1736;52.068;6.968;2024-03-17T12:01:43;101777.16;;;12.71;64.50
3444;BME280;1736;52.068;6.968;2024-03-17T12:04:09;101767.16;;;12.85;65.13
3444;BME280;1736;52.068;6.968;2024-03-17T12:06:36;101736.00;;;13.20;64.19
3444;BME280;1736;52.068;6.968;2024-03-17T12:09:10;101722.81;;;13.19;63.77
3444;BME280;1736;52.068;6.968;2024-03-17T12:11:38;101720.50;;;13.25;64.53
3444;BME280;1736;52.068;6.968;2024-03-17T12:14:25;101712.63;;;13.24;63.85
3444;BME280;1736;52.068;6.968;2024-03-17T12:16:52;101705.84;;;13.20;63.63
3444;BME280;1736;52.068;6.968;2024-03-17T12:19:19;101692.28;;;13.34;63.15
3444;BME280;1736;52.068;6.968;2024-03-17T12:21:47;101691.56;;;13.43;63.02
3444;BME280;1736;52.068;6.968;2024-03-17T12:24:16;101682.84;;;13.41;62.93
3444;BME280;1736;52.068;6.968;2024-03-17T12:26:45;101693.78;;;13.91;62.79
3444;BME280;1736;52.068;6.968;2024-03-17T12:29:25;101690.72;;;14.07;62.92
3444;BME280;1736;52.068;6.968;2024-03-17T12:31:53;101690.19;;;14.24;61.38
3444;BME280;1736;52.068;6.968;2024-03-17T12:34:19;101685.34;;;14.18;61.32
3444;BME280;1736;52.068;6.968;2024-03-17T12:36:47;101689.56;;;14.20;60.92
3444;BME280;1736;52.068;6.968;2024-03-17T12:39:18;101686.69;;;14.44;60.82
3444;BME280;1736;52.068;6.968;2024-03-17T12:42:01;101688.34;;;14.56;60.95
3444;BME280;1736;52.068;6.968;2024-03-17T12:44:27;101676.81;;;14.76;60.58
3444;BME280;1736;52.068;6.968;2024-03-17T12:46:55;101704.81;;;14.61;59.96
3444;BME280;1736;52.068;6.968;2024-03-17T12:49:21;101749.47;;;14.38;59.90
3444;BME280;1736;52.068;6.968;2024-03-17T12:51:50;102004.53;;;14.22;60.10
3444;BME280;1736;52.068;6.968;2024-03-17T12:54:15;102006.94;;;14.25;60.35
3444;BME280;1736;52.068;6.968;2024-03-17T12:56:46;101929.75;;;14.44;60.77
3444;BME280;1736;52.068;6.968;2024-03-17T12:59:38;101930.97;;;14.40;60.49
3444;BME280;1736;52.068;6.968;2024-03-17T13:02:22;101848.41;;;14.48;59.92
3444;BME280;1736;52.068;6.968;2024-03-17T13:05:05;101820.34;;;14.53;60.53
3444;BME280;1736;52.068;6.968;2024-03-17T13:07:32;101880.09;;;14.84;59.94
3444;BME280;1736;52.068;6.968;2024-03-17T13:09:59;101776.59;;;14.86;59.81
3444;BME280;1736;52.068;6.968;2024-03-17T13:12:27;101716.69;;;14.88;59.43
3444;BME280;1736;52.068;6.968;2024-03-17T13:14:54;101717.03;;;14.74;59.57
3444;BME280;1736;52.068;6.968;2024-03-17T13:17:21;101697.06;;;14.58;59.91